sensor_id;sensor_type;location;lat;lon;timestamp;temperature;humidity
9772;DHT22;4925;52.588;13.370;2022-12-28T00:02:15;4.80;99.90
9772;DHT22;4925;52.588;13.370;2022-12-28T00:04:41;4.80;99.90
9772;DHT22;4925;52.588;13.370;2022-12-28T00:07:06;4.90;99.90
9772;DHT22;4925;52.588;13.370;2022-12-28T00:09:32;4.90;99.90
9772;DHT22;4925;52.588;13.370;2022-12-28T00:11:58;4.90;99.90
9772;DHT22;4925;52.588;13.370;2022-12-28T00:14:23;5.00;99.90
9772;DHT22;4925;52.588;13.370;2022-12-28T00:16:49;5.10;99.90
9772;DHT22;4925;52.588;13.370;2022-12-28T00:19:15;5.10;99.90
9772;DHT22;4925;52.588;13.370;2022-12-28T00:21:42;5.10;99.90
9772;DHT22;4925;52.588;13.370;2022-12-28T00:24:21;5.10;99.90
9772;DHT22;4925;52.588;13.370;2022-12-28T00:26:47;5.10;99.90
9772;DHT22;4925;52.588;13.370;2022-12-28T00:29:13;5.10;99.90
9772;DHT22;4925;52.588;13.370;2022-12-28T00:31:39;5.10;99.90
9772;DHT22;4925;52.588;13.370;2022-12-28T00:34:05;5.10;99.90
9772;DHT22;4925;52.588;13.370;2022-12-28T00:36:31;5.20;99.90
9772;DHT22;4925;52.588;13.370;2022-12-28T00:38:57;5.20;99.90
9772;DHT22;4925;52.588;13.370;2022-12-28T00:41:23;5.20;99.90
9772;DHT22;4925;52.588;13.370;2022-12-28T00:43:50;5.30;99.90
9772;DHT22;4925;52.588;13.370;2022-12-28T00:46:15;5.30;99.90
9772;DHT22;4925;52.588;13.370;2022-12-28T00:48:42;5.30;99.90
9772;DHT22;4925;52.588;13.370;2022-12-28T00:51:12;5.30;99.90
9772;DHT22;4925;52.588;13.370;2022-12-28T00:53:38;5.30;99.90
9772;DHT22;4925;52.588;13.370;2022-12-28T00:56:22;5.30;99.90
9772;DHT22;4925;52.588;13.370;2022-12-28T00:58:48;5.30;99.90
9772;DHT22;4925;52.588;13.370;2022-12-28T01:01:17;5.40;99.90
9772;DHT22;4925;52.588;13.370;2022-12-28T01:03:44;5.30;99.90
9772;DHT22;4925;52.588;13.370;2022-12-28T01:06:11;5.40;99.90
9772;DHT22;4925;52.588;13.370;2022-12-28T01:08:38;5.40;99.90
9772;DHT22;4925;52.588;13.370;2022-12-28T01:11:17;5.50;99.90
9772;DHT22;4925;52.588;13.370;2022-12-28T01:13:43;5.50;99.90
9772;DHT22;4925;52.588;13.370;2022-12-28T01:16:14;5.50;99.90
9772;DHT22;4925;52.588;13.370;2022-12-28T01:18:40;5.40;99.90
9772;DHT22;4925;52.588;13.370;2022-12-28T01:21:15;5.40;99.90
9772;DHT22;4925;52.588;13.370;2022-12-28T01:23:41;5.40;99.90
9772;DHT22;4925;52.588;13.370;2022-12-28T01:26:07;5.50;99.90
9772;DHT22;4925;52.588;13.370;2022-12-28T01:28:33;5.40;99.90
9772;DHT22;4925;52.588;13.370;2022-12-28T01:31:10;5.50;99.90
9772;DHT22;4925;52.588;13.370;2022-12-28T01:33:36;5.50;99.90
9772;DHT22;4925;52.588;13.370;2022-12-28T01:36:18;5.50;99.90
9772;DHT22;4925;52.588;13.370;2022-12-28T01:38:45;5.50;99.90
9772;DHT22;4925;52.588;13.370;2022-12-28T01:41:13;5.50;99.90
9772;DHT22;4925;52.588;13.370;2022-12-28T01:43:42;5.50;99.90
9772;DHT22;4925;52.588;13.370;2022-12-28T01:46:16;5.50;99.90
9772;DHT22;4925;52.588;13.370;2022-12-28T01:52:00;5.50;99.90
9772;DHT22;4925;52.588;13.370;2022-12-28T01:54:30;5.50;99.90
9772;DHT22;4925;52.588;13.370;2022-12-28T01:56:57;5.50;99.90
9772;DHT22;4925;52.588;13.370;2022-12-28T01:59:26;5.50;99.90
9772;DHT22;4925;52.588;13.370;2022-12-28T02:01:53;5.50;99.90
9772;DHT22;4925;52.588;13.370;2022-12-28T02:04:19;5.60;99.90
9772;DHT22;4925;52.588;13.370;2022-12-28T02:06:46;5.50;99.90
9772;DHT22;4925;52.588;13.370;2022-12-28T02:09:22;5.60;99.90
9772;DHT22;4925;52.588;13.370;2022-12-28T02:11:52;5.40;99.90
9772;DHT22;4925;52.588;13.370;2022-12-28T02:14:18;5.40;99.90
9772;DHT22;4925;52.588;13.370;2022-12-28T02:16:44;5.40;99.90
9772;DHT22;4925;52.588;13.370;2022-12-28T02:19:13;5.40;99.90
9772;DHT22;4925;52.588;13.370;2022-12-28T02:22:00;5.40;99.90
9772;DHT22;4925;52.588;13.370;2022-12-28T02:30:17;5.30;99.90
9772;DHT22;4925;52.588;13.370;2022-12-28T02:32:52;5.30;99.90
9772;DHT22;4925;52.588;13.370;2022-12-28T02:35:44;5.20;99.90
9772;DHT22;4925;52.588;13.370;2022-12-28T02:38:13;5.30;99.90
9772;DHT22;4925;52.588;13.370;2022-12-28T02:40:47;5.20;99.90
9772;DHT22;4925;52.588;13.370;2022-12-28T02:43:14;5.20;99.90
9772;DHT22;4925;52.588;13.370;2022-12-28T02:45:44;5.20;99.90
9772;DHT22;4925;52.588;13.370;2022-12-28T02:48:43;5.20;99.90
9772;DHT22;4925;52.588;13.370;2022-12-28T03:00:03;5.10;99.90
9772;DHT22;4925;52.588;13.370;2022-12-28T03:08:10;5.10;99.90
9772;DHT22;4925;52.588;13.370;2022-12-28T03:16:26;5.10;99.90
9772;DHT22;4925;52.588;13.370;2022-12-28T03:18:59;5.10;99.90
9772;DHT22;4925;52.588;13.370;2022-12-28T03:21:47;5.00;99.90
9772;DHT22;4925;52.588;13.370;2022-12-28T03:24:33;5.00;99.90
9772;DHT22;4925;52.588;13.370;2022-12-28T03:27:19;5.00;99.90
9772;DHT22;4925;52.588;13.370;2022-12-28T03:30:08;5.00;99.90
9772;DHT22;4925;52.588;13.370;2022-12-28T03:32:53;5.00;99.90
9772;DHT22;4925;52.588;13.370;2022-12-28T03:35:23;5.00;99.90
9772;DHT22;4925;52.588;13.370;2022-12-28T03:37:56;5.00;99.90
9772;DHT22;4925;52.588;13.370;2022-12-28T03:43:01;4.90;99.90
9772;DHT22;4925;52.588;13.370;2022-12-28T03:46:03;5.00;99.90
9772;DHT22;4925;52.588;13.370;2022-12-28T03:48:33;4.90;99.90
9772;DHT22;4925;52.588;13.370;2022-12-28T03:50:58;4.90;99.90
9772;DHT22;4925;52.588;13.370;2022-12-28T03:53:28;4.90;99.90
9772;DHT22;4925;52.588;13.370;2022-12-28T03:56:12;4.90;99.90
9772;DHT22;4925;52.588;13.370;2022-12-28T03:58:38;4.90;99.90
9772;DHT22;4925;52.588;13.370;2022-12-28T04:01:04;4.90;99.90
9772;DHT22;4925;52.588;13.370;2022-12-28T04:03:30;4.90;99.90
9772;DHT22;4925;52.588;13.370;2022-12-28T04:05:56;4.90;99.90
9772;DHT22;4925;52.588;13.370;2022-12-28T04:08:22;4.90;99.90
9772;DHT22;4925;52.588;13.370;2022-12-28T04:10:48;4.90;99.90
9772;DHT22;4925;52.588;13.370;2022-12-28T04:13:13;4.90;99.90
9772;DHT22;4925;52.588;13.370;2022-12-28T04:15:39;4.80;99.90
9772;DHT22;4925;52.588;13.370;2022-12-28T04:18:04;4.80;99.90
9772;DHT22;4925;52.588;13.370;2022-12-28T04:20:31;4.80;99.90
9772;DHT22;4925;52.588;13.370;2022-12-28T04:22:56;4.70;99.90
9772;DHT22;4925;52.588;13.370;2022-12-28T04:25:22;4.80;99.90
9772;DHT22;4925;52.588;13.370;2022-12-28T04:27:48;4.80;99.90
9772;DHT22;4925;52.588;13.370;2022-12-28T04:30:14;4.80;99.90
9772;DHT22;4925;52.588;13.370;2022-12-28T04:32:39;4.90;99.90
9772;DHT22;4925;52.588;13.370;2022-12-28T04:35:05;4.80;99.90
9772;DHT22;4925;52.588;13.370;2022-12-28T04:37:31;4.80;99.90
9772;DHT22;4925;52.588;13.370;2022-12-28T04:39:56;4.80;99.90
9772;DHT22;4925;52.588;13.370;2022-12-28T04:42:23;4.90;99.90
9772;DHT22;4925;52.588;13.370;2022-12-28T04:44:49;4.90;99.90
9772;DHT22;4925;52.588;13.370;2022-12-28T04:47:14;4.80;99.90
9772;DHT22;4925;52.588;13.370;2022-12-28T04:49:43;4.80;99.90
9772;DHT22;4925;52.588;13.370;2022-12-28T04:52:09;4.90;99.90
9772;DHT22;4925;52.588;13.370;2022-12-28T04:54:34;4.80;99.90
9772;DHT22;4925;52.588;13.370;2022-12-28T04:57:00;4.80;99.90
9772;DHT22;4925;52.588;13.370;2022-12-28T04:59:25;4.80;99.90
9772;DHT22;4925;52.588;13.370;2022-12-28T05:01:51;4.80;99.90
9772;DHT22;4925;52.588;13.370;2022-12-28T05:04:17;4.80;99.90
9772;DHT22;4925;52.588;13.370;2022-12-28T05:06:42;4.80;99.90
9772;DHT22;4925;52.588;13.370;2022-12-28T05:09:08;4.70;99.90
9772;DHT22;4925;52.588;13.370;2022-12-28T05:11:33;4.70;99.90
9772;DHT22;4925;52.588;13.370;2022-12-28T05:13:59;4.70;99.90
9772;DHT22;4925;52.588;13.370;2022-12-28T05:16:26;4.70;99.90
9772;DHT22;4925;52.588;13.370;2022-12-28T05:18:54;4.80;99.90
9772;DHT22;4925;52.588;13.370;2022-12-28T05:21:23;4.80;99.90
9772;DHT22;4925;52.588;13.370;2022-12-28T05:23:50;4.80;99.90
9772;DHT22;4925;52.588;13.370;2022-12-28T05:26:18;4.70;99.90
9772;DHT22;4925;52.588;13.370;2022-12-28T05:28:44;4.70;99.90
9772;DHT22;4925;52.588;13.370;2022-12-28T05:31:15;4.70;99.90
9772;DHT22;4925;52.588;13.370;2022-12-28T05:33:42;4.70;99.90
9772;DHT22;4925;52.588;13.370;2022-12-28T05:36:18;4.60;99.90
9772;DHT22;4925;52.588;13.370;2022-12-28T05:38:44;4.70;99.90
9772;DHT22;4925;52.588;13.370;2022-12-28T05:41:15;4.60;99.90
9772;DHT22;4925;52.588;13.370;2022-12-28T05:43:42;4.70;99.90
9772;DHT22;4925;52.588;13.370;2022-12-28T05:46:12;4.70;99.90
9772;DHT22;4925;52.588;13.370;2022-12-28T05:48:40;4.70;99.90
9772;DHT22;4925;52.588;13.370;2022-12-28T05:51:08;4.60;99.90
9772;DHT22;4925;52.588;13.370;2022-12-28T05:53:36;4.70;99.90
9772;DHT22;4925;52.588;13.370;2022-12-28T05:56:07;4.70;99.90
9772;DHT22;4925;52.588;13.370;2022-12-28T05:58:33;4.80;99.90
9772;DHT22;4925;52.588;13.370;2022-12-28T06:01:10;4.80;99.90
9772;DHT22;4925;52.588;13.370;2022-12-28T06:03:37;4.70;99.90
9772;DHT22;4925;52.588;13.370;2022-12-28T06:06:05;4.80;99.90
9772;DHT22;4925;52.588;13.370;2022-12-28T06:08:31;4.80;99.90
9772;DHT22;4925;52.588;13.370;2022-12-28T06:11:01;4.80;99.90
9772;DHT22;4925;52.588;13.370;2022-12-28T06:13:28;4.80;99.90
9772;DHT22;4925;52.588;13.370;2022-12-28T06:15:54;4.80;99.90
9772;DHT22;4925;52.588;13.370;2022-12-28T06:18:19;4.80;99.90
9772;DHT22;4925;52.588;13.370;2022-12-28T06:20:45;4.90;99.90
9772;DHT22;4925;52.588;13.370;2022-12-28T06:23:11;4.80;99.90
9772;DHT22;4925;52.588;13.370;2022-12-28T06:25:37;4.90;99.90
9772;DHT22;4925;52.588;13.370;2022-12-28T06:28:03;4.90;99.90
9772;DHT22;4925;52.588;13.370;2022-12-28T06:30:29;4.80;99.90
9772;DHT22;4925;52.588;13.370;2022-12-28T06:32:57;4.90;99.90
9772;DHT22;4925;52.588;13.370;2022-12-28T06:35:23;4.90;99.90
9772;DHT22;4925;52.588;13.370;2022-12-28T06:37:49;4.90;99.90
9772;DHT22;4925;52.588;13.370;2022-12-28T06:40:14;4.90;99.90
9772;DHT22;4925;52.588;13.370;2022-12-28T06:42:40;5.00;99.90
9772;DHT22;4925;52.588;13.370;2022-12-28T06:45:06;5.10;99.90
9772;DHT22;4925;52.588;13.370;2022-12-28T06:47:32;5.00;99.90
9772;DHT22;4925;52.588;13.370;2022-12-28T06:50:00;5.00;99.90
9772;DHT22;4925;52.588;13.370;2022-12-28T06:52:26;5.00;99.90
9772;DHT22;4925;52.588;13.370;2022-12-28T06:54:51;5.10;99.90
9772;DHT22;4925;52.588;13.370;2022-12-28T06:57:17;5.00;99.90
9772;DHT22;4925;52.588;13.370;2022-12-28T06:59:43;5.10;99.90
9772;DHT22;4925;52.588;13.370;2022-12-28T07:02:08;5.00;99.90
9772;DHT22;4925;52.588;13.370;2022-12-28T07:04:34;5.00;99.90
9772;DHT22;4925;52.588;13.370;2022-12-28T07:07:00;4.90;99.90
9772;DHT22;4925;52.588;13.370;2022-12-28T07:09:25;5.00;99.90
9772;DHT22;4925;52.588;13.370;2022-12-28T07:11:51;5.00;99.90
9772;DHT22;4925;52.588;13.370;2022-12-28T07:14:17;4.90;99.90
9772;DHT22;4925;52.588;13.370;2022-12-28T07:16:43;4.90;99.90
9772;DHT22;4925;52.588;13.370;2022-12-28T07:19:09;5.00;99.90
9772;DHT22;4925;52.588;13.370;2022-12-28T07:21:37;5.00;99.90
9772;DHT22;4925;52.588;13.370;2022-12-28T07:24:03;5.00;99.90
9772;DHT22;4925;52.588;13.370;2022-12-28T07:26:31;5.00;99.90
9772;DHT22;4925;52.588;13.370;2022-12-28T07:28:59;5.00;99.90
9772;DHT22;4925;52.588;13.370;2022-12-28T07:31:28;5.00;99.90
9772;DHT22;4925;52.588;13.370;2022-12-28T07:33:55;5.10;99.90
9772;DHT22;4925;52.588;13.370;2022-12-28T07:36:22;5.10;99.90
9772;DHT22;4925;52.588;13.370;2022-12-28T07:38:48;5.10;99.90
9772;DHT22;4925;52.588;13.370;2022-12-28T07:41:17;5.10;99.90
9772;DHT22;4925;52.588;13.370;2022-12-28T07:43:43;5.10;99.90
9772;DHT22;4925;52.588;13.370;2022-12-28T07:46:11;5.20;99.90
9772;DHT22;4925;52.588;13.370;2022-12-28T07:48:38;5.20;99.90
9772;DHT22;4925;52.588;13.370;2022-12-28T07:51:26;5.10;99.90
9772;DHT22;4925;52.588;13.370;2022-12-28T07:53:53;5.20;99.90
9772;DHT22;4925;52.588;13.370;2022-12-28T07:56:20;5.20;99.90
9772;DHT22;4925;52.588;13.370;2022-12-28T07:58:59;5.20;99.90
9772;DHT22;4925;52.588;13.370;2022-12-28T08:01:28;5.30;99.90
9772;DHT22;4925;52.588;13.370;2022-12-28T08:03:56;5.20;99.90
9772;DHT22;4925;52.588;13.370;2022-12-28T08:06:23;5.30;99.90
9772;DHT22;4925;52.588;13.370;2022-12-28T08:08:54;5.20;99.90
9772;DHT22;4925;52.588;13.370;2022-12-28T08:11:25;5.20;99.90
9772;DHT22;4925;52.588;13.370;2022-12-28T08:13:53;5.30;99.90
9772;DHT22;4925;52.588;13.370;2022-12-28T08:16:20;5.30;99.90
9772;DHT22;4925;52.588;13.370;2022-12-28T08:18:47;5.30;99.90
9772;DHT22;4925;52.588;13.370;2022-12-28T08:21:22;5.30;99.90
9772;DHT22;4925;52.588;13.370;2022-12-28T08:23:48;5.30;99.90
9772;DHT22;4925;52.588;13.370;2022-12-28T08:26:22;5.40;99.90
9772;DHT22;4925;52.588;13.370;2022-12-28T08:28:50;5.40;99.90
9772;DHT22;4925;52.588;13.370;2022-12-28T08:31:19;5.50;99.90
9772;DHT22;4925;52.588;13.370;2022-12-28T08:33:46;5.50;99.90
9772;DHT22;4925;52.588;13.370;2022-12-28T08:36:12;5.60;99.90
9772;DHT22;4925;52.588;13.370;2022-12-28T08:38:40;5.50;99.90
9772;DHT22;4925;52.588;13.370;2022-12-28T08:41:10;5.50;99.90
9772;DHT22;4925;52.588;13.370;2022-12-28T08:43:36;5.50;99.90
9772;DHT22;4925;52.588;13.370;2022-12-28T08:46:05;5.60;99.90
9772;DHT22;4925;52.588;13.370;2022-12-28T08:48:32;5.70;99.90
9772;DHT22;4925;52.588;13.370;2022-12-28T08:51:04;5.80;99.90
9772;DHT22;4925;52.588;13.370;2022-12-28T08:53:30;5.80;99.90
9772;DHT22;4925;52.588;13.370;2022-12-28T08:56:05;5.80;99.90
9772;DHT22;4925;52.588;13.370;2022-12-28T08:58:31;5.90;99.90
9772;DHT22;4925;52.588;13.370;2022-12-28T09:01:13;6.00;99.90
9772;DHT22;4925;52.588;13.370;2022-12-28T09:03:42;6.00;99.90
9772;DHT22;4925;52.588;13.370;2022-12-28T09:06:14;6.00;99.90
9772;DHT22;4925;52.588;13.370;2022-12-28T09:08:39;5.90;99.90
9772;DHT22;4925;52.588;13.370;2022-12-28T09:11:10;5.90;99.90
9772;DHT22;4925;52.588;13.370;2022-12-28T09:13:37;5.90;99.90
9772;DHT22;4925;52.588;13.370;2022-12-28T09:16:05;6.00;99.90
9772;DHT22;4925;52.588;13.370;2022-12-28T09:18:31;5.90;99.90
9772;DHT22;4925;52.588;13.370;2022-12-28T09:21:07;6.00;99.90
9772;DHT22;4925;52.588;13.370;2022-12-28T09:23:33;5.90;99.90
9772;DHT22;4925;52.588;13.370;2022-12-28T09:26:14;6.00;99.90
9772;DHT22;4925;52.588;13.370;2022-12-28T09:28:51;6.00;99.90
9772;DHT22;4925;52.588;13.370;2022-12-28T09:31:18;6.10;99.90
9772;DHT22;4925;52.588;13.370;2022-12-28T09:33:44;6.20;99.90
9772;DHT22;4925;52.588;13.370;2022-12-28T09:36:32;6.20;99.90
9772;DHT22;4925;52.588;13.370;2022-12-28T09:39:05;6.20;99.90
9772;DHT22;4925;52.588;13.370;2022-12-28T09:52:48;6.50;99.90
9772;DHT22;4925;52.588;13.370;2022-12-28T09:55:17;6.50;99.90
9772;DHT22;4925;52.588;13.370;2022-12-28T09:57:53;6.60;99.90
9772;DHT22;4925;52.588;13.370;2022-12-28T10:00:35;6.60;99.90
9772;DHT22;4925;52.588;13.370;2022-12-28T10:03:04;6.60;99.90
9772;DHT22;4925;52.588;13.370;2022-12-28T10:05:32;6.70;99.90
9772;DHT22;4925;52.588;13.370;2022-12-28T10:07:58;6.70;99.90
9772;DHT22;4925;52.588;13.370;2022-12-28T10:10:28;6.80;99.90
9772;DHT22;4925;52.588;13.370;2022-12-28T10:12:54;6.80;99.90
9772;DHT22;4925;52.588;13.370;2022-12-28T10:15:26;6.80;99.90
9772;DHT22;4925;52.588;13.370;2022-12-28T10:17:52;6.90;99.90
9772;DHT22;4925;52.588;13.370;2022-12-28T10:20:20;6.90;99.90
9772;DHT22;4925;52.588;13.370;2022-12-28T10:22:52;7.00;99.90
9772;DHT22;4925;52.588;13.370;2022-12-28T10:25:22;7.10;99.90
9772;DHT22;4925;52.588;13.370;2022-12-28T10:27:48;7.00;99.90
9772;DHT22;4925;52.588;13.370;2022-12-28T10:30:20;7.10;99.90
9772;DHT22;4925;52.588;13.370;2022-12-28T10:32:51;7.10;99.90
9772;DHT22;4925;52.588;13.370;2022-12-28T10:35:22;7.10;99.90
9772;DHT22;4925;52.588;13.370;2022-12-28T10:37:48;7.10;99.90
9772;DHT22;4925;52.588;13.370;2022-12-28T10:40:26;7.10;99.90
9772;DHT22;4925;52.588;13.370;2022-12-28T10:42:54;7.10;99.90
9772;DHT22;4925;52.588;13.370;2022-12-28T10:45:24;7.20;99.90
9772;DHT22;4925;52.588;13.370;2022-12-28T10:47:52;7.20;99.90
9772;DHT22;4925;52.588;13.370;2022-12-28T10:58:40;7.40;99.90
9772;DHT22;4925;52.588;13.370;2022-12-28T11:01:17;7.40;99.90
9772;DHT22;4925;52.588;13.370;2022-12-28T11:06:56;7.60;99.90
9772;DHT22;4925;52.588;13.370;2022-12-28T11:09:24;7.60;99.90
9772;DHT22;4925;52.588;13.370;2022-12-28T11:11:52;7.60;99.90
9772;DHT22;4925;52.588;13.370;2022-12-28T11:14:24;7.70;99.90
9772;DHT22;4925;52.588;13.370;2022-12-28T11:16:51;7.80;99.90
9772;DHT22;4925;52.588;13.370;2022-12-28T11:19:18;7.70;99.90
9772;DHT22;4925;52.588;13.370;2022-12-28T11:21:44;7.80;99.90
9772;DHT22;4925;52.588;13.370;2022-12-28T11:24:15;7.90;99.90
9772;DHT22;4925;52.588;13.370;2022-12-28T11:26:47;7.90;99.90
9772;DHT22;4925;52.588;13.370;2022-12-28T11:29:15;7.90;99.90
9772;DHT22;4925;52.588;13.370;2022-12-28T11:31:48;8.00;99.90
9772;DHT22;4925;52.588;13.370;2022-12-28T11:34:19;8.00;99.90
9772;DHT22;4925;52.588;13.370;2022-12-28T11:36:47;8.00;99.90
9772;DHT22;4925;52.588;13.370;2022-12-28T11:41:56;8.00;99.90
9772;DHT22;4925;52.588;13.370;2022-12-28T11:47:03;8.10;99.90
9772;DHT22;4925;52.588;13.370;2022-12-28T11:49:32;8.10;99.90
9772;DHT22;4925;52.588;13.370;2022-12-28T12:02:53;8.40;99.90
9772;DHT22;4925;52.588;13.370;2022-12-28T12:10:37;8.50;99.90
9772;DHT22;4925;52.588;13.370;2022-12-28T12:15:58;8.60;99.90
9772;DHT22;4925;52.588;13.370;2022-12-28T12:18:27;8.60;99.90
9772;DHT22;4925;52.588;13.370;2022-12-28T12:21:35;8.80;99.90
9772;DHT22;4925;52.588;13.370;2022-12-28T12:26:54;8.80;99.90
9772;DHT22;4925;52.588;13.370;2022-12-28T12:29:59;8.90;99.90
9772;DHT22;4925;52.588;13.370;2022-12-28T12:32:42;9.00;99.90
9772;DHT22;4925;52.588;13.370;2022-12-28T12:35:13;9.00;99.90
9772;DHT22;4925;52.588;13.370;2022-12-28T12:48:39;9.10;99.90
9772;DHT22;4925;52.588;13.370;2022-12-28T12:51:24;9.10;99.90
9772;DHT22;4925;52.588;13.370;2022-12-28T12:59:41;9.30;99.90
9772;DHT22;4925;52.588;13.370;2022-12-28T13:05:16;9.60;99.90
9772;DHT22;4925;52.588;13.370;2022-12-28T13:07:43;9.70;99.90
9772;DHT22;4925;52.588;13.370;2022-12-28T13:10:17;9.80;99.90
9772;DHT22;4925;52.588;13.370;2022-12-28T13:12:44;9.70;99.90
9772;DHT22;4925;52.588;13.370;2022-12-28T13:15:16;9.70;99.90
9772;DHT22;4925;52.588;13.370;2022-12-28T13:18:20;9.60;99.90
9772;DHT22;4925;52.588;13.370;2022-12-28T13:20:57;9.60;99.90
9772;DHT22;4925;52.588;13.370;2022-12-28T13:23:24;9.70;99.90
9772;DHT22;4925;52.588;13.370;2022-12-28T13:25:52;9.70;99.90
9772;DHT22;4925;52.588;13.370;2022-12-28T13:28:30;9.70;99.90
9772;DHT22;4925;52.588;13.370;2022-12-28T13:33:29;9.70;99.90
9772;DHT22;4925;52.588;13.370;2022-12-28T13:36:14;9.80;99.90
9772;DHT22;4925;52.588;13.370;2022-12-28T13:38:41;9.80;99.90
9772;DHT22;4925;52.588;13.370;2022-12-28T13:41:20;10.00;99.90
9772;DHT22;4925;52.588;13.370;2022-12-28T13:44:24;10.00;99.90
9772;DHT22;4925;52.588;13.370;2022-12-28T13:46:45;9.90;99.90
9772;DHT22;4925;52.588;13.370;2022-12-28T13:49:15;9.90;99.90
9772;DHT22;4925;52.588;13.370;2022-12-28T13:51:41;9.90;99.90
9772;DHT22;4925;52.588;13.370;2022-12-28T13:54:08;10.00;99.90
9772;DHT22;4925;52.588;13.370;2022-12-28T13:56:36;9.90;99.90
9772;DHT22;4925;52.588;13.370;2022-12-28T13:59:06;9.90;99.90
9772;DHT22;4925;52.588;13.370;2022-12-28T14:01:35;10.00;99.90
9772;DHT22;4925;52.588;13.370;2022-12-28T14:04:06;10.00;99.90
9772;DHT22;4925;52.588;13.370;2022-12-28T14:06:32;10.00;99.90
9772;DHT22;4925;52.588;13.370;2022-12-28T14:08:59;9.70;99.90
9772;DHT22;4925;52.588;13.370;2022-12-28T14:11:25;9.60;99.90
9772;DHT22;4925;52.588;13.370;2022-12-28T14:13:51;9.60;99.90
9772;DHT22;4925;52.588;13.370;2022-12-28T14:16:18;9.60;99.90
9772;DHT22;4925;52.588;13.370;2022-12-28T14:18:44;9.50;99.90
9772;DHT22;4925;52.588;13.370;2022-12-28T14:21:10;9.40;99.90
9772;DHT22;4925;52.588;13.370;2022-12-28T14:23:37;9.40;99.90
9772;DHT22;4925;52.588;13.370;2022-12-28T14:26:07;9.40;99.90
9772;DHT22;4925;52.588;13.370;2022-12-28T14:28:45;9.40;99.90
9772;DHT22;4925;52.588;13.370;2022-12-28T14:31:18;9.30;99.90
9772;DHT22;4925;52.588;13.370;2022-12-28T14:33:59;9.40;99.90
9772;DHT22;4925;52.588;13.370;2022-12-28T14:36:35;9.30;99.90
9772;DHT22;4925;52.588;13.370;2022-12-28T14:39:02;9.20;99.90
9772;DHT22;4925;52.588;13.370;2022-12-28T14:41:33;9.20;99.90
9772;DHT22;4925;52.588;13.370;2022-12-28T14:44:01;9.30;99.90
9772;DHT22;4925;52.588;13.370;2022-12-28T14:46:31;9.20;99.90
9772;DHT22;4925;52.588;13.370;2022-12-28T14:48:58;9.20;99.90
9772;DHT22;4925;52.588;13.370;2022-12-28T14:51:29;9.20;99.90
9772;DHT22;4925;52.588;13.370;2022-12-28T14:56:42;9.20;99.90
9772;DHT22;4925;52.588;13.370;2022-12-28T14:59:33;9.20;99.90
9772;DHT22;4925;52.588;13.370;2022-12-28T15:02:00;9.20;99.90
9772;DHT22;4925;52.588;13.370;2022-12-28T15:04:38;9.20;99.90
9772;DHT22;4925;52.588;13.370;2022-12-28T15:07:06;9.20;99.90
9772;DHT22;4925;52.588;13.370;2022-12-28T15:09:33;9.30;99.90
9772;DHT22;4925;52.588;13.370;2022-12-28T15:12:16;9.30;99.90
9772;DHT22;4925;52.588;13.370;2022-12-28T15:14:42;9.30;99.90
9772;DHT22;4925;52.588;13.370;2022-12-28T15:17:08;9.20;99.90
9772;DHT22;4925;52.588;13.370;2022-12-28T15:19:34;9.20;99.90
9772;DHT22;4925;52.588;13.370;2022-12-28T15:22:00;9.20;99.90
9772;DHT22;4925;52.588;13.370;2022-12-28T15:24:26;9.20;99.90
9772;DHT22;4925;52.588;13.370;2022-12-28T15:26:52;9.20;99.90
9772;DHT22;4925;52.588;13.370;2022-12-28T15:29:18;9.10;99.90
9772;DHT22;4925;52.588;13.370;2022-12-28T15:31:44;9.10;99.90
9772;DHT22;4925;52.588;13.370;2022-12-28T15:34:10;9.10;99.90
9772;DHT22;4925;52.588;13.370;2022-12-28T15:36:37;9.10;99.90
9772;DHT22;4925;52.588;13.370;2022-12-28T15:39:03;9.00;99.90
9772;DHT22;4925;52.588;13.370;2022-12-28T15:41:29;9.00;99.90
9772;DHT22;4925;52.588;13.370;2022-12-28T15:44:15;9.00;99.90
9772;DHT22;4925;52.588;13.370;2022-12-28T15:46:41;9.00;99.90
9772;DHT22;4925;52.588;13.370;2022-12-28T15:49:10;9.00;99.90
9772;DHT22;4925;52.588;13.370;2022-12-28T15:51:36;8.90;99.90
9772;DHT22;4925;52.588;13.370;2022-12-28T15:54:01;8.90;99.90
9772;DHT22;4925;52.588;13.370;2022-12-28T15:56:30;8.90;99.90
9772;DHT22;4925;52.588;13.370;2022-12-28T15:58:58;8.90;99.90
9772;DHT22;4925;52.588;13.370;2022-12-28T16:01:26;8.90;99.90
9772;DHT22;4925;52.588;13.370;2022-12-28T16:03:53;8.90;99.90
9772;DHT22;4925;52.588;13.370;2022-12-28T16:06:20;8.80;99.90
9772;DHT22;4925;52.588;13.370;2022-12-28T16:08:45;8.80;99.90
9772;DHT22;4925;52.588;13.370;2022-12-28T16:11:16;8.80;99.90
9772;DHT22;4925;52.588;13.370;2022-12-28T16:13:43;8.80;99.90
9772;DHT22;4925;52.588;13.370;2022-12-28T16:16:14;8.80;99.90
9772;DHT22;4925;52.588;13.370;2022-12-28T16:18:39;8.80;99.90
9772;DHT22;4925;52.588;13.370;2022-12-28T16:21:07;8.80;99.90
9772;DHT22;4925;52.588;13.370;2022-12-28T16:23:35;8.90;99.90
9772;DHT22;4925;52.588;13.370;2022-12-28T16:26:01;8.80;99.90
9772;DHT22;4925;52.588;13.370;2022-12-28T16:28:28;8.80;99.90
9772;DHT22;4925;52.588;13.370;2022-12-28T16:30:54;8.80;99.90
9772;DHT22;4925;52.588;13.370;2022-12-28T16:33:20;8.80;99.90
9772;DHT22;4925;52.588;13.370;2022-12-28T16:35:46;8.80;99.90
9772;DHT22;4925;52.588;13.370;2022-12-28T16:38:14;8.80;99.90
9772;DHT22;4925;52.588;13.370;2022-12-28T16:40:40;8.80;99.90
9772;DHT22;4925;52.588;13.370;2022-12-28T16:43:06;8.80;99.90
9772;DHT22;4925;52.588;13.370;2022-12-28T16:45:40;8.80;99.90
9772;DHT22;4925;52.588;13.370;2022-12-28T16:48:09;8.90;99.90
9772;DHT22;4925;52.588;13.370;2022-12-28T16:50:36;8.90;99.90
9772;DHT22;4925;52.588;13.370;2022-12-28T16:53:02;8.90;99.90
9772;DHT22;4925;52.588;13.370;2022-12-28T16:55:37;8.90;99.90
9772;DHT22;4925;52.588;13.370;2022-12-28T16:58:03;8.90;99.90
9772;DHT22;4925;52.588;13.370;2022-12-28T17:00:29;8.90;99.90
9772;DHT22;4925;52.588;13.370;2022-12-28T17:02:54;8.80;99.90
9772;DHT22;4925;52.588;13.370;2022-12-28T17:05:20;8.90;99.90
9772;DHT22;4925;52.588;13.370;2022-12-28T17:07:46;8.80;99.90
9772;DHT22;4925;52.588;13.370;2022-12-28T17:10:12;8.90;99.90
9772;DHT22;4925;52.588;13.370;2022-12-28T17:12:38;8.80;99.90
9772;DHT22;4925;52.588;13.370;2022-12-28T17:15:04;8.90;99.90
9772;DHT22;4925;52.588;13.370;2022-12-28T17:17:30;8.90;99.90
9772;DHT22;4925;52.588;13.370;2022-12-28T17:19:57;8.90;99.90
9772;DHT22;4925;52.588;13.370;2022-12-28T17:22:22;8.90;99.90
9772;DHT22;4925;52.588;13.370;2022-12-28T17:24:48;9.00;99.90
9772;DHT22;4925;52.588;13.370;2022-12-28T17:27:14;9.00;99.90
9772;DHT22;4925;52.588;13.370;2022-12-28T17:29:40;8.90;99.90
9772;DHT22;4925;52.588;13.370;2022-12-28T17:32:06;9.00;99.90
9772;DHT22;4925;52.588;13.370;2022-12-28T17:34:32;8.90;99.90
9772;DHT22;4925;52.588;13.370;2022-12-28T17:36:57;8.80;99.90
9772;DHT22;4925;52.588;13.370;2022-12-28T17:39:23;8.80;99.90
9772;DHT22;4925;52.588;13.370;2022-12-28T17:41:49;8.70;99.90
9772;DHT22;4925;52.588;13.370;2022-12-28T17:44:14;8.60;99.90
9772;DHT22;4925;52.588;13.370;2022-12-28T17:46:40;8.60;99.90
9772;DHT22;4925;52.588;13.370;2022-12-28T17:49:11;8.60;99.90
9772;DHT22;4925;52.588;13.370;2022-12-28T17:51:37;8.50;99.90
9772;DHT22;4925;52.588;13.370;2022-12-28T17:54:08;8.60;99.90
9772;DHT22;4925;52.588;13.370;2022-12-28T17:56:34;8.50;99.90
9772;DHT22;4925;52.588;13.370;2022-12-28T17:59:00;8.50;99.90
9772;DHT22;4925;52.588;13.370;2022-12-28T18:01:26;8.50;99.90
9772;DHT22;4925;52.588;13.370;2022-12-28T18:03:53;8.50;99.90